Terminal Aerodrome Forecast
Issued by NWS

Home | Current Version | Previous Version | Text Only | Print | Product List | Glossary On
Versions: 1 2 3 4 5 6 7 8 9 10 11 12 13 14 15 16 17 18 19 20 21 22 23
000
FTUS45 KABQ 012300
TAFFMN
TAF
KFMN 012340Z 0200/0224 07008KT P6SM FEW020 SCT035 OVC050
      TEMPO 0200/0202 3SM -RA BR OVC015
     FM020700 VRB05KT P6SM VCFG BKN005
      TEMPO 0210/0214 1/2SM FG
     FM021500 12008KT P6SM FEW025 SCT120=

USA.gov is the U.S. government's official web portal to all federal, state and local government web resources and services.